<?xml version="1.0" encoding="UTF-8" standalone="no" ?>
<gpx xmlns="http://www.topografix.com/GPX/1/1" xmlns:xsi="http://www.w3.org/2001/XMLSchema-instance" xsi:schemaLocation="http://www.topografix.com/GPX/1/1 http://www.topografix.com/GPX/1/1/gpx.xsd" version="1.1" creator="VisuGPX - https://www.visugpx.com">
  <metadata>
    <name>Aux alentours de Pennedepie et Cricqueboeuf</name>
  </metadata>
  <wpt lat="49.40694" lon="0.17736">
    <ele>31</ele>
    <name><![CDATA[Quitter le parking vers le Sud]]></name>
  </wpt>
  <wpt lat="49.40357" lon="0.182">
    <ele>106</ele>
    <name><![CDATA[Virer à gauche ]]></name>
  </wpt>
  <wpt lat="49.41102" lon="0.19131">
    <ele>113</ele>
    <name><![CDATA[Tourner à gauche et descendre ce chemin]]></name>
  </wpt>
  <wpt lat="49.41353" lon="0.187">
    <ele>21</ele>
    <name><![CDATA[Traverser la route en faisant un gauche/droite]]></name>
  </wpt>
  <wpt lat="49.41553" lon="0.18436">
    <ele>3</ele>
    <name><![CDATA[Prendre à gauche]]></name>
  </wpt>
  <wpt lat="49.40563" lon="0.14152">
    <ele>5</ele>
    <name><![CDATA[Monter les escaliers en bois]]></name>
  </wpt>
  <wpt lat="49.40217" lon="0.14528">
    <ele>35</ele>
    <name><![CDATA[Traverser la route de Honfleur]]></name>
  </wpt>
  <wpt lat="49.40032" lon="0.14477">
    <ele>47</ele>
    <name><![CDATA[Obliquer à droite]]></name>
  </wpt>
  <wpt lat="49.39314" lon="0.13908">
    <ele>115</ele>
    <name><![CDATA[Tourner à gauche]]></name>
  </wpt>
  <wpt lat="49.39999" lon="0.15035">
    <ele>40</ele>
    <name><![CDATA[Chemin des Quatre Nations.]]></name>
  </wpt>
  <wpt lat="49.39677" lon="0.15123">
    <ele>42</ele>
    <name><![CDATA[Virer à gauche ]]></name>
  </wpt>
  <wpt lat="49.40107" lon="0.16593">
    <ele>55</ele>
    <name><![CDATA[A droite au calvaire]]></name>
  </wpt>
  <wpt lat="49.39504" lon="0.1773">
    <ele>50</ele>
    <name><![CDATA[Prendre à gauche]]></name>
  </wpt>
  <wpt lat="49.407" lon="0.17738">
    <ele>31</ele>
    <name><![CDATA[Retour au parking de l'église]]></name>
  </wpt>
  <trk>
    <name><![CDATA[Aux alentours de Pennedepie et Cricqueboeuf]]></name>
    <trkseg>
      <trkpt lat="49.40694" lon="0.17736">
        <ele>31</ele>
        <time>2015-12-03T09:03:00+01:00</time>
      </trkpt>
      <trkpt lat="49.40701" lon="0.17708">
        <ele>29</ele>
        <time>2020-08-17T23:16:41+02:00</time>
      </trkpt>
      <trkpt lat="49.40702" lon="0.17681">
        <ele>27</ele>
        <time>2015-12-03T09:06:18+01:00</time>
      </trkpt>
      <trkpt lat="49.40658" lon="0.17701">
        <ele>30</ele>
        <time>2015-12-03T09:07:05+01:00</time>
      </trkpt>
      <trkpt lat="49.40634" lon="0.17729">
        <ele>33</ele>
        <time>2015-12-03T09:07:28+01:00</time>
      </trkpt>
      <trkpt lat="49.40613" lon="0.17759">
        <ele>35</ele>
        <time>2015-12-03T09:07:50+01:00</time>
      </trkpt>
      <trkpt lat="49.40598" lon="0.17777">
        <ele>37</ele>
        <time>2015-12-03T09:08:05+01:00</time>
      </trkpt>
      <trkpt lat="49.40576" lon="0.17804">
        <ele>40</ele>
        <time>2015-12-03T09:08:29+01:00</time>
      </trkpt>
      <trkpt lat="49.40559" lon="0.17838">
        <ele>43</ele>
        <time>2015-12-03T09:08:59+01:00</time>
      </trkpt>
      <trkpt lat="49.40546" lon="0.17859">
        <ele>44</ele>
        <time>2015-12-03T09:09:40+01:00</time>
      </trkpt>
      <trkpt lat="49.40513" lon="0.17925">
        <ele>52</ele>
        <time>2015-12-03T09:10:20+01:00</time>
      </trkpt>
      <trkpt lat="49.40491" lon="0.17993">
        <ele>69</ele>
        <time>2015-12-03T09:10:40+01:00</time>
      </trkpt>
      <trkpt lat="49.4047" lon="0.18018">
        <ele>74</ele>
        <time>2015-12-03T09:11:10+01:00</time>
      </trkpt>
      <trkpt lat="49.40459" lon="0.18052">
        <ele>84</ele>
        <time>2015-12-03T09:11:54+01:00</time>
      </trkpt>
      <trkpt lat="49.40444" lon="0.18055">
        <ele>84</ele>
        <time>2015-12-03T09:12:31+01:00</time>
      </trkpt>
      <trkpt lat="49.40426" lon="0.18053">
        <ele>82</ele>
        <time>2015-12-03T09:12:55+01:00</time>
      </trkpt>
      <trkpt lat="49.40408" lon="0.18086">
        <ele>89</ele>
        <time>2015-12-03T09:13:35+01:00</time>
      </trkpt>
      <trkpt lat="49.40392" lon="0.181">
        <ele>91</ele>
        <time>2015-12-03T09:14:02+01:00</time>
      </trkpt>
      <trkpt lat="49.40374" lon="0.18133">
        <ele>96</ele>
        <time>2015-12-03T09:14:35+01:00</time>
      </trkpt>
      <trkpt lat="49.40367" lon="0.18161">
        <ele>101</ele>
        <time>2015-12-03T09:14:56+01:00</time>
      </trkpt>
      <trkpt lat="49.40363" lon="0.18169">
        <ele>102</ele>
        <time>2015-12-03T09:17:00+01:00</time>
      </trkpt>
      <trkpt lat="49.40357" lon="0.182">
        <ele>106</ele>
        <time>2015-12-03T09:17:45+01:00</time>
      </trkpt>
      <trkpt lat="49.40392" lon="0.18182">
        <ele>107</ele>
        <time>2015-12-03T09:18:19+01:00</time>
      </trkpt>
      <trkpt lat="49.40445" lon="0.18198">
        <ele>111</ele>
        <time>2015-12-03T09:18:45+01:00</time>
      </trkpt>
      <trkpt lat="49.40479" lon="0.18179">
        <ele>110</ele>
        <time>2015-12-03T09:19:15+01:00</time>
      </trkpt>
      <trkpt lat="49.40507" lon="0.18174">
        <ele>110</ele>
        <time>2015-12-03T09:19:35+01:00</time>
      </trkpt>
      <trkpt lat="49.40552" lon="0.18227">
        <ele>114</ele>
        <time>2015-12-03T09:20:09+01:00</time>
      </trkpt>
      <trkpt lat="49.4058" lon="0.18252">
        <ele>116</ele>
        <time>2015-12-03T09:20:43+01:00</time>
      </trkpt>
      <trkpt lat="49.40592" lon="0.18291">
        <ele>116</ele>
        <time>2015-12-03T09:21:04+01:00</time>
      </trkpt>
      <trkpt lat="49.40578" lon="0.18337">
        <ele>118</ele>
        <time>2015-12-03T09:21:28+01:00</time>
      </trkpt>
      <trkpt lat="49.4058" lon="0.18385">
        <ele>117</ele>
        <time>2020-08-17T23:19:06+02:00</time>
      </trkpt>
      <trkpt lat="49.40604" lon="0.18391">
        <ele>116</ele>
        <time>2015-12-03T09:22:17+01:00</time>
      </trkpt>
      <trkpt lat="49.40631" lon="0.18372">
        <ele>116</ele>
        <time>2015-12-03T09:22:51+01:00</time>
      </trkpt>
      <trkpt lat="49.40661" lon="0.18376">
        <ele>115</ele>
        <time>2015-12-03T09:23:16+01:00</time>
      </trkpt>
      <trkpt lat="49.40695" lon="0.18394">
        <ele>113</ele>
        <time>2015-12-03T09:23:56+01:00</time>
      </trkpt>
      <trkpt lat="49.40701" lon="0.18427">
        <ele>114</ele>
        <time>2015-12-03T09:24:24+01:00</time>
      </trkpt>
      <trkpt lat="49.40686" lon="0.18486">
        <ele>114</ele>
        <time>2015-12-03T09:24:52+01:00</time>
      </trkpt>
      <trkpt lat="49.40712" lon="0.18509">
        <ele>114</ele>
        <time>2015-12-03T09:25:19+01:00</time>
      </trkpt>
      <trkpt lat="49.40739" lon="0.18527">
        <ele>115</ele>
        <time>2015-12-03T09:25:34+01:00</time>
      </trkpt>
      <trkpt lat="49.40763" lon="0.18541">
        <ele>114</ele>
        <time>2015-12-03T09:25:58+01:00</time>
      </trkpt>
      <trkpt lat="49.40772" lon="0.18559">
        <ele>114</ele>
        <time>2015-12-03T09:26:17+01:00</time>
      </trkpt>
      <trkpt lat="49.40814" lon="0.18599">
        <ele>114</ele>
        <time>2015-12-03T09:26:40+01:00</time>
      </trkpt>
      <trkpt lat="49.40829" lon="0.18625">
        <ele>114</ele>
        <time>2015-12-03T09:27:12+01:00</time>
      </trkpt>
      <trkpt lat="49.40858" lon="0.18664">
        <ele>111</ele>
        <time>2015-12-03T09:27:36+01:00</time>
      </trkpt>
      <trkpt lat="49.40897" lon="0.18714">
        <ele>109</ele>
        <time>2015-12-03T09:28:45+01:00</time>
      </trkpt>
      <trkpt lat="49.40926" lon="0.18748">
        <ele>109</ele>
        <time>2015-12-03T09:29:16+01:00</time>
      </trkpt>
      <trkpt lat="49.40935" lon="0.18789">
        <ele>109</ele>
        <time>2015-12-03T09:29:39+01:00</time>
      </trkpt>
      <trkpt lat="49.40948" lon="0.18811">
        <ele>108</ele>
        <time>2015-12-03T09:29:56+01:00</time>
      </trkpt>
      <trkpt lat="49.40967" lon="0.18848">
        <ele>109</ele>
        <time>2015-12-03T09:30:19+01:00</time>
      </trkpt>
      <trkpt lat="49.40986" lon="0.18877">
        <ele>109</ele>
        <time>2015-12-03T09:30:40+01:00</time>
      </trkpt>
      <trkpt lat="49.41003" lon="0.18931">
        <ele>112</ele>
        <time>2015-12-03T09:31:13+01:00</time>
      </trkpt>
      <trkpt lat="49.41027" lon="0.18992">
        <ele>114</ele>
        <time>2015-12-03T09:31:44+01:00</time>
      </trkpt>
      <trkpt lat="49.41052" lon="0.1904">
        <ele>114</ele>
        <time>2015-12-03T09:32:11+01:00</time>
      </trkpt>
      <trkpt lat="49.41072" lon="0.19081">
        <ele>115</ele>
        <time>2015-12-03T09:32:28+01:00</time>
      </trkpt>
      <trkpt lat="49.41091" lon="0.19113">
        <ele>114</ele>
        <time>2015-12-03T09:32:58+01:00</time>
      </trkpt>
      <trkpt lat="49.41102" lon="0.19131">
        <ele>113</ele>
        <time>2015-12-03T09:33:15+01:00</time>
      </trkpt>
      <trkpt lat="49.41144" lon="0.19135">
        <ele>106</ele>
        <time>2015-12-03T09:34:19+01:00</time>
      </trkpt>
      <trkpt lat="49.41172" lon="0.19164">
        <ele>105</ele>
        <time>2015-12-03T09:34:52+01:00</time>
      </trkpt>
      <trkpt lat="49.41197" lon="0.19195">
        <ele>100</ele>
        <time>2015-12-03T09:35:29+01:00</time>
      </trkpt>
      <trkpt lat="49.41215" lon="0.19204">
        <ele>96</ele>
        <time>2015-12-03T09:35:49+01:00</time>
      </trkpt>
      <trkpt lat="49.41223" lon="0.1918">
        <ele>89</ele>
        <time>2015-12-03T09:36:24+01:00</time>
      </trkpt>
      <trkpt lat="49.41212" lon="0.19143">
        <ele>86</ele>
        <time>2015-12-03T09:36:51+01:00</time>
      </trkpt>
      <trkpt lat="49.41198" lon="0.19098">
        <ele>84</ele>
        <time>2015-12-03T09:37:32+01:00</time>
      </trkpt>
      <trkpt lat="49.41193" lon="0.19062">
        <ele>79</ele>
        <time>2015-12-03T09:38:01+01:00</time>
      </trkpt>
      <trkpt lat="49.41186" lon="0.19037">
        <ele>77</ele>
        <time>2015-12-03T09:38:26+01:00</time>
      </trkpt>
      <trkpt lat="49.41177" lon="0.18999">
        <ele>73</ele>
        <time>2015-12-03T09:39:14+01:00</time>
      </trkpt>
      <trkpt lat="49.4117" lon="0.18956">
        <ele>64</ele>
        <time>2015-12-03T09:39:44+01:00</time>
      </trkpt>
      <trkpt lat="49.41185" lon="0.18904">
        <ele>48</ele>
        <time>2015-12-03T09:40:24+01:00</time>
      </trkpt>
      <trkpt lat="49.41211" lon="0.18863">
        <ele>40</ele>
        <time>2015-12-03T09:41:05+01:00</time>
      </trkpt>
      <trkpt lat="49.41275" lon="0.18794">
        <ele>29</ele>
        <time>2015-12-03T09:42:25+01:00</time>
      </trkpt>
      <trkpt lat="49.41289" lon="0.18775">
        <ele>27</ele>
        <time>2015-12-03T09:42:41+01:00</time>
      </trkpt>
      <trkpt lat="49.41319" lon="0.18738">
        <ele>23</ele>
        <time>2015-12-03T09:43:12+01:00</time>
      </trkpt>
      <trkpt lat="49.41353" lon="0.187">
        <ele>21</ele>
        <time>2015-12-03T09:43:55+01:00</time>
      </trkpt>
      <trkpt lat="49.41321" lon="0.18643">
        <ele>21</ele>
        <time>2015-12-03T09:44:39+01:00</time>
      </trkpt>
      <trkpt lat="49.41293" lon="0.18594">
        <ele>23</ele>
        <time>2015-12-03T09:45:03+01:00</time>
      </trkpt>
      <trkpt lat="49.41311" lon="0.18562">
        <ele>21</ele>
        <time>2015-12-03T09:45:40+01:00</time>
      </trkpt>
      <trkpt lat="49.41331" lon="0.18531">
        <ele>18</ele>
        <time>2015-12-03T09:46:05+01:00</time>
      </trkpt>
      <trkpt lat="49.41355" lon="0.18482">
        <ele>15</ele>
        <time>2015-12-03T09:46:37+01:00</time>
      </trkpt>
      <trkpt lat="49.41368" lon="0.1843">
        <ele>13</ele>
        <time>2015-12-03T09:47:11+01:00</time>
      </trkpt>
      <trkpt lat="49.41408" lon="0.18393">
        <ele>9</ele>
        <time>2015-12-03T09:47:50+01:00</time>
      </trkpt>
      <trkpt lat="49.41433" lon="0.18411">
        <ele>9</ele>
        <time>2015-12-03T09:48:14+01:00</time>
      </trkpt>
      <trkpt lat="49.41456" lon="0.18438">
        <ele>9</ele>
        <time>2015-12-03T09:48:38+01:00</time>
      </trkpt>
      <trkpt lat="49.41507" lon="0.18501">
        <ele>8</ele>
        <time>2015-12-03T09:49:45+01:00</time>
      </trkpt>
      <trkpt lat="49.41531" lon="0.18478">
        <ele>5</ele>
        <time>2015-12-03T09:50:23+01:00</time>
      </trkpt>
      <trkpt lat="49.41553" lon="0.18436">
        <ele>3</ele>
        <time>2015-12-03T09:51:10+01:00</time>
      </trkpt>
      <trkpt lat="49.41553" lon="0.18365">
        <ele>2</ele>
        <time>2015-12-03T09:51:59+01:00</time>
      </trkpt>
      <trkpt lat="49.41541" lon="0.1831">
        <ele>1</ele>
        <time>2015-12-03T09:52:35+01:00</time>
      </trkpt>
      <trkpt lat="49.41532" lon="0.18284">
        <ele>1</ele>
        <time>2015-12-03T09:52:53+01:00</time>
      </trkpt>
      <trkpt lat="49.41517" lon="0.18229">
        <ele>2.9</ele>
        <time>2015-12-03T09:53:25+01:00</time>
      </trkpt>
      <trkpt lat="49.4151" lon="0.18202">
        <ele>2.8</ele>
        <time>2015-12-03T09:53:40+01:00</time>
      </trkpt>
      <trkpt lat="49.41498" lon="0.18161">
        <ele>2.1</ele>
        <time>2015-12-03T09:54:04+01:00</time>
      </trkpt>
      <trkpt lat="49.41466" lon="0.18053">
        <ele>2.9</ele>
        <time>2015-12-03T09:55:07+01:00</time>
      </trkpt>
      <trkpt lat="49.41444" lon="0.18006">
        <ele>-1</ele>
        <time>2015-12-03T09:55:40+01:00</time>
      </trkpt>
      <trkpt lat="49.41429" lon="0.17971">
        <ele>-1</ele>
        <time>2015-12-03T09:56:03+01:00</time>
      </trkpt>
      <trkpt lat="49.41406" lon="0.17921">
        <ele>3.1</ele>
        <time>2015-12-03T09:56:35+01:00</time>
      </trkpt>
      <trkpt lat="49.41375" lon="0.17845">
        <ele>1</ele>
        <time>2015-12-03T09:57:22+01:00</time>
      </trkpt>
      <trkpt lat="49.41363" lon="0.1782">
        <ele>1</ele>
        <time>2015-12-03T09:57:38+01:00</time>
      </trkpt>
      <trkpt lat="49.41342" lon="0.17769">
        <ele>2.9</ele>
        <time>2015-12-03T09:58:10+01:00</time>
      </trkpt>
      <trkpt lat="49.41331" lon="0.17743">
        <ele>-1</ele>
        <time>2015-12-03T09:58:26+01:00</time>
      </trkpt>
      <trkpt lat="49.4131" lon="0.17693">
        <ele>-2</ele>
        <time>2015-12-03T09:58:57+01:00</time>
      </trkpt>
      <trkpt lat="49.41293" lon="0.17653">
        <ele>-1</ele>
        <time>2015-12-03T09:59:21+01:00</time>
      </trkpt>
      <trkpt lat="49.41279" lon="0.17613">
        <ele>4</ele>
        <time>2015-12-03T09:59:45+01:00</time>
      </trkpt>
      <trkpt lat="49.41266" lon="0.17557">
        <ele>3.9</ele>
        <time>2015-12-03T10:00:15+01:00</time>
      </trkpt>
      <trkpt lat="49.41258" lon="0.17515">
        <ele>-1</ele>
        <time>2015-12-03T10:00:37+01:00</time>
      </trkpt>
      <trkpt lat="49.41243" lon="0.17413">
        <ele>-1</ele>
        <time>2015-12-03T10:01:33+01:00</time>
      </trkpt>
      <trkpt lat="49.41229" lon="0.17299">
        <ele>3</ele>
        <time>2015-12-03T10:02:31+01:00</time>
      </trkpt>
      <trkpt lat="49.4122" lon="0.17257">
        <ele>3.1</ele>
        <time>2015-12-03T10:02:55+01:00</time>
      </trkpt>
      <trkpt lat="49.412" lon="0.1716">
        <ele>1</ele>
        <time>2015-12-03T10:03:51+01:00</time>
      </trkpt>
      <trkpt lat="49.4119" lon="0.17105">
        <ele>3.2</ele>
        <time>2015-12-03T10:04:18+01:00</time>
      </trkpt>
      <trkpt lat="49.41182" lon="0.17078">
        <ele>3.4</ele>
        <time>2015-12-03T10:04:31+01:00</time>
      </trkpt>
      <trkpt lat="49.41171" lon="0.17023">
        <ele>3</ele>
        <time>2015-12-03T10:04:58+01:00</time>
      </trkpt>
      <trkpt lat="49.41162" lon="0.16964">
        <ele>3.2</ele>
        <time>2015-12-03T10:05:31+01:00</time>
      </trkpt>
      <trkpt lat="49.41156" lon="0.16906">
        <ele>3.6</ele>
        <time>2015-12-03T10:06:03+01:00</time>
      </trkpt>
      <trkpt lat="49.41147" lon="0.1688">
        <ele>3.5</ele>
        <time>2015-12-03T10:06:25+01:00</time>
      </trkpt>
      <trkpt lat="49.41135" lon="0.16823">
        <ele>1</ele>
        <time>2015-12-03T10:06:56+01:00</time>
      </trkpt>
      <trkpt lat="49.4113" lon="0.16795">
        <ele>1</ele>
        <time>2015-12-03T10:07:11+01:00</time>
      </trkpt>
      <trkpt lat="49.41122" lon="0.16737">
        <ele>1</ele>
        <time>2015-12-03T10:07:42+01:00</time>
      </trkpt>
      <trkpt lat="49.41112" lon="0.16681">
        <ele>1</ele>
        <time>2015-12-03T10:08:13+01:00</time>
      </trkpt>
      <trkpt lat="49.41106" lon="0.16622">
        <ele>1</ele>
        <time>2015-12-03T10:08:45+01:00</time>
      </trkpt>
      <trkpt lat="49.41104" lon="0.16563">
        <ele>1</ele>
        <time>2015-12-03T10:09:13+01:00</time>
      </trkpt>
      <trkpt lat="49.41104" lon="0.16502">
        <ele>2.5</ele>
        <time>2015-12-03T10:09:46+01:00</time>
      </trkpt>
      <trkpt lat="49.41102" lon="0.16411">
        <ele>2.3</ele>
        <time>2015-12-03T10:10:28+01:00</time>
      </trkpt>
      <trkpt lat="49.41107" lon="0.16351">
        <ele>2.1</ele>
        <time>2015-12-03T10:11:02+01:00</time>
      </trkpt>
      <trkpt lat="49.41111" lon="0.1629">
        <ele>2</ele>
        <time>2015-12-03T10:11:35+01:00</time>
      </trkpt>
      <trkpt lat="49.4111" lon="0.16259">
        <ele>2</ele>
        <time>2015-12-03T10:11:50+01:00</time>
      </trkpt>
      <trkpt lat="49.41115" lon="0.16217">
        <ele>1.9</ele>
        <time>2015-12-03T10:12:12+01:00</time>
      </trkpt>
      <trkpt lat="49.41105" lon="0.16164">
        <ele>1</ele>
        <time>2015-12-03T10:12:47+01:00</time>
      </trkpt>
      <trkpt lat="49.41104" lon="0.16126">
        <ele>1.2</ele>
        <time>2015-12-03T10:13:10+01:00</time>
      </trkpt>
      <trkpt lat="49.411" lon="0.16099">
        <ele>1.2</ele>
        <time>2015-12-03T10:13:26+01:00</time>
      </trkpt>
      <trkpt lat="49.41075" lon="0.16019">
        <ele>1.2</ele>
        <time>2015-12-03T10:14:11+01:00</time>
      </trkpt>
      <trkpt lat="49.41056" lon="0.15963">
        <ele>1</ele>
        <time>2015-12-03T10:14:42+01:00</time>
      </trkpt>
      <trkpt lat="49.41042" lon="0.15925">
        <ele>1.5</ele>
        <time>2015-12-03T10:15:03+01:00</time>
      </trkpt>
      <trkpt lat="49.41028" lon="0.15871">
        <ele>1.4</ele>
        <time>2015-12-03T10:15:30+01:00</time>
      </trkpt>
      <trkpt lat="49.4102" lon="0.15813">
        <ele>1.3</ele>
        <time>2015-12-03T10:16:02+01:00</time>
      </trkpt>
      <trkpt lat="49.41008" lon="0.15758">
        <ele>1.3</ele>
        <time>2015-12-03T10:16:31+01:00</time>
      </trkpt>
      <trkpt lat="49.40995" lon="0.15718">
        <ele>1.2</ele>
        <time>2015-12-03T10:16:51+01:00</time>
      </trkpt>
      <trkpt lat="49.40969" lon="0.15623">
        <ele>1.1</ele>
        <time>2015-12-03T10:17:45+01:00</time>
      </trkpt>
      <trkpt lat="49.4095" lon="0.15573">
        <ele>1</ele>
        <time>2015-12-03T10:18:13+01:00</time>
      </trkpt>
      <trkpt lat="49.40942" lon="0.15547">
        <ele>1.1</ele>
        <time>2015-12-03T10:18:33+01:00</time>
      </trkpt>
      <trkpt lat="49.40924" lon="0.15511">
        <ele>-1</ele>
        <time>2015-12-03T10:18:58+01:00</time>
      </trkpt>
      <trkpt lat="49.40882" lon="0.15411">
        <ele>1.9</ele>
        <time>2015-12-03T10:19:59+01:00</time>
      </trkpt>
      <trkpt lat="49.40866" lon="0.15358">
        <ele>1.8</ele>
        <time>2015-12-03T10:20:28+01:00</time>
      </trkpt>
      <trkpt lat="49.40852" lon="0.15304">
        <ele>1.3</ele>
        <time>2015-12-03T10:20:56+01:00</time>
      </trkpt>
      <trkpt lat="49.40839" lon="0.15263">
        <ele>1.4</ele>
        <time>2015-12-03T10:21:21+01:00</time>
      </trkpt>
      <trkpt lat="49.40832" lon="0.15237">
        <ele>1.1</ele>
        <time>2015-12-03T10:21:36+01:00</time>
      </trkpt>
      <trkpt lat="49.40822" lon="0.15195">
        <ele>2</ele>
        <time>2015-12-03T10:21:57+01:00</time>
      </trkpt>
      <trkpt lat="49.40814" lon="0.15168">
        <ele>2</ele>
        <time>2015-12-03T10:22:12+01:00</time>
      </trkpt>
      <trkpt lat="49.40805" lon="0.15127">
        <ele>1</ele>
        <time>2015-12-03T10:22:36+01:00</time>
      </trkpt>
      <trkpt lat="49.40798" lon="0.151">
        <ele>1</ele>
        <time>2015-12-03T10:22:49+01:00</time>
      </trkpt>
      <trkpt lat="49.40782" lon="0.15047">
        <ele>1.6</ele>
        <time>2015-12-03T10:23:21+01:00</time>
      </trkpt>
      <trkpt lat="49.4076" lon="0.14984">
        <ele>2</ele>
        <time>2015-12-03T10:23:59+01:00</time>
      </trkpt>
      <trkpt lat="49.40748" lon="0.14944">
        <ele>2.1</ele>
        <time>2015-12-03T10:24:25+01:00</time>
      </trkpt>
      <trkpt lat="49.40738" lon="0.14904">
        <ele>2</ele>
        <time>2015-12-03T10:24:56+01:00</time>
      </trkpt>
      <trkpt lat="49.40729" lon="0.14863">
        <ele>2</ele>
        <time>2015-12-03T10:25:19+01:00</time>
      </trkpt>
      <trkpt lat="49.40715" lon="0.14807">
        <ele>2.3</ele>
        <time>2015-12-03T10:25:51+01:00</time>
      </trkpt>
      <trkpt lat="49.40705" lon="0.14765">
        <ele>1</ele>
        <time>2015-12-03T10:26:14+01:00</time>
      </trkpt>
      <trkpt lat="49.40694" lon="0.14722">
        <ele>1</ele>
        <time>2015-12-03T10:26:37+01:00</time>
      </trkpt>
      <trkpt lat="49.40685" lon="0.14695">
        <ele>1</ele>
        <time>2015-12-03T10:26:52+01:00</time>
      </trkpt>
      <trkpt lat="49.40671" lon="0.1464">
        <ele>1</ele>
        <time>2015-12-03T10:27:22+01:00</time>
      </trkpt>
      <trkpt lat="49.40663" lon="0.14612">
        <ele>2.3</ele>
        <time>2015-12-03T10:27:37+01:00</time>
      </trkpt>
      <trkpt lat="49.40645" lon="0.14558">
        <ele>1</ele>
        <time>2015-12-03T10:28:08+01:00</time>
      </trkpt>
      <trkpt lat="49.40621" lon="0.14474">
        <ele>1</ele>
        <time>2015-12-03T10:28:55+01:00</time>
      </trkpt>
      <trkpt lat="49.40617" lon="0.14444">
        <ele>1</ele>
        <time>2015-12-03T10:29:12+01:00</time>
      </trkpt>
      <trkpt lat="49.40606" lon="0.14387">
        <ele>2</ele>
        <time>2015-12-03T10:29:43+01:00</time>
      </trkpt>
      <trkpt lat="49.40596" lon="0.14361">
        <ele>2</ele>
        <time>2015-12-03T10:30:02+01:00</time>
      </trkpt>
      <trkpt lat="49.40584" lon="0.14305">
        <ele>3</ele>
        <time>2015-12-03T10:30:42+01:00</time>
      </trkpt>
      <trkpt lat="49.40578" lon="0.14248">
        <ele>4</ele>
        <time>2015-12-03T10:31:18+01:00</time>
      </trkpt>
      <trkpt lat="49.4057" lon="0.14193">
        <ele>4</ele>
        <time>2015-12-03T10:31:59+01:00</time>
      </trkpt>
      <trkpt lat="49.40563" lon="0.14152">
        <ele>5</ele>
        <time>2015-12-03T10:32:28+01:00</time>
      </trkpt>
      <trkpt lat="49.40549" lon="0.14137">
        <ele>7</ele>
        <time>2015-12-03T10:33:54+01:00</time>
      </trkpt>
      <trkpt lat="49.40486" lon="0.14109">
        <ele>15</ele>
        <time>2015-12-03T10:54:49+01:00</time>
      </trkpt>
      <trkpt lat="49.40459" lon="0.14115">
        <ele>17</ele>
        <time>2015-12-03T10:55:17+01:00</time>
      </trkpt>
      <trkpt lat="49.40441" lon="0.14128">
        <ele>18</ele>
        <time>2015-12-03T10:55:33+01:00</time>
      </trkpt>
      <trkpt lat="49.40416" lon="0.14174">
        <ele>21</ele>
        <time>2015-12-03T10:56:09+01:00</time>
      </trkpt>
      <trkpt lat="49.40407" lon="0.14199">
        <ele>22</ele>
        <time>2015-12-03T10:56:29+01:00</time>
      </trkpt>
      <trkpt lat="49.40384" lon="0.14247">
        <ele>25</ele>
        <time>2015-12-03T10:57:06+01:00</time>
      </trkpt>
      <trkpt lat="49.40368" lon="0.14283">
        <ele>26</ele>
        <time>2015-12-03T10:57:29+01:00</time>
      </trkpt>
      <trkpt lat="49.40363" lon="0.14298">
        <ele>26</ele>
        <time>2015-12-03T10:57:37+01:00</time>
      </trkpt>
      <trkpt lat="49.40349" lon="0.14351">
        <ele>27</ele>
        <time>2015-12-03T10:58:06+01:00</time>
      </trkpt>
      <trkpt lat="49.40329" lon="0.14401">
        <ele>30</ele>
        <time>2015-12-03T10:58:39+01:00</time>
      </trkpt>
      <trkpt lat="49.40307" lon="0.14451">
        <ele>30</ele>
        <time>2015-12-03T10:59:11+01:00</time>
      </trkpt>
      <trkpt lat="49.40283" lon="0.14497">
        <ele>31</ele>
        <time>2015-12-03T10:59:43+01:00</time>
      </trkpt>
      <trkpt lat="49.40254" lon="0.14537">
        <ele>32</ele>
        <time>2015-12-03T11:00:15+01:00</time>
      </trkpt>
      <trkpt lat="49.40217" lon="0.14528">
        <ele>35</ele>
        <time>2015-12-03T11:00:48+01:00</time>
      </trkpt>
      <trkpt lat="49.40188" lon="0.14524">
        <ele>36</ele>
        <time>2015-12-03T11:01:12+01:00</time>
      </trkpt>
      <trkpt lat="49.40171" lon="0.14513">
        <ele>38</ele>
        <time>2015-12-03T11:01:34+01:00</time>
      </trkpt>
      <trkpt lat="49.40148" lon="0.14488">
        <ele>39</ele>
        <time>2015-12-03T11:02:09+01:00</time>
      </trkpt>
      <trkpt lat="49.40121" lon="0.14472">
        <ele>41</ele>
        <time>2015-12-03T11:02:31+01:00</time>
      </trkpt>
      <trkpt lat="49.40103" lon="0.14468">
        <ele>42</ele>
        <time>2015-12-03T11:02:47+01:00</time>
      </trkpt>
      <trkpt lat="49.40074" lon="0.14473">
        <ele>44</ele>
        <time>2015-12-03T11:03:11+01:00</time>
      </trkpt>
      <trkpt lat="49.40032" lon="0.14477">
        <ele>47</ele>
        <time>2015-12-03T11:03:36+01:00</time>
      </trkpt>
      <trkpt lat="49.40034" lon="0.14426">
        <ele>49</ele>
        <time>2015-12-03T11:05:25+01:00</time>
      </trkpt>
      <trkpt lat="49.40038" lon="0.14398">
        <ele>51</ele>
        <time>2015-12-03T11:05:40+01:00</time>
      </trkpt>
      <trkpt lat="49.40054" lon="0.1433">
        <ele>53</ele>
        <time>2015-12-03T11:06:05+01:00</time>
      </trkpt>
      <trkpt lat="49.40045" lon="0.14294">
        <ele>56</ele>
        <time>2015-12-03T11:06:40+01:00</time>
      </trkpt>
      <trkpt lat="49.40022" lon="0.14252">
        <ele>61</ele>
        <time>2015-12-03T11:07:19+01:00</time>
      </trkpt>
      <trkpt lat="49.40005" lon="0.14215">
        <ele>65</ele>
        <time>2015-12-03T11:07:48+01:00</time>
      </trkpt>
      <trkpt lat="49.39997" lon="0.14173">
        <ele>70</ele>
        <time>2015-12-03T11:08:18+01:00</time>
      </trkpt>
      <trkpt lat="49.39994" lon="0.14145">
        <ele>71</ele>
        <time>2015-12-03T11:08:36+01:00</time>
      </trkpt>
      <trkpt lat="49.39991" lon="0.141">
        <ele>73</ele>
        <time>2015-12-03T11:09:04+01:00</time>
      </trkpt>
      <trkpt lat="49.3997" lon="0.14047">
        <ele>77</ele>
        <time>2015-12-03T11:09:28+01:00</time>
      </trkpt>
      <trkpt lat="49.39946" lon="0.14062">
        <ele>80</ele>
        <time>2015-12-03T11:10:01+01:00</time>
      </trkpt>
      <trkpt lat="49.39927" lon="0.14069">
        <ele>82</ele>
        <time>2015-12-03T11:10:22+01:00</time>
      </trkpt>
      <trkpt lat="49.39899" lon="0.14063">
        <ele>85</ele>
        <time>2015-12-03T11:10:51+01:00</time>
      </trkpt>
      <trkpt lat="49.39863" lon="0.14075">
        <ele>88</ele>
        <time>2015-12-03T11:11:31+01:00</time>
      </trkpt>
      <trkpt lat="49.39824" lon="0.14071">
        <ele>91</ele>
        <time>2015-12-03T11:12:06+01:00</time>
      </trkpt>
      <trkpt lat="49.39806" lon="0.14059">
        <ele>93</ele>
        <time>2015-12-03T11:12:21+01:00</time>
      </trkpt>
      <trkpt lat="49.39779" lon="0.1404">
        <ele>97</ele>
        <time>2015-12-03T11:12:44+01:00</time>
      </trkpt>
      <trkpt lat="49.39762" lon="0.14023">
        <ele>100</ele>
        <time>2015-12-03T11:12:59+01:00</time>
      </trkpt>
      <trkpt lat="49.3969" lon="0.13987">
        <ele>106</ele>
        <time>2015-12-03T11:14:00+01:00</time>
      </trkpt>
      <trkpt lat="49.39653" lon="0.13976">
        <ele>107</ele>
        <time>2015-12-03T11:14:30+01:00</time>
      </trkpt>
      <trkpt lat="49.39633" lon="0.13972">
        <ele>107</ele>
        <time>2015-12-03T11:14:45+01:00</time>
      </trkpt>
      <trkpt lat="49.39596" lon="0.13963">
        <ele>106</ele>
        <time>2015-12-03T11:15:15+01:00</time>
      </trkpt>
      <trkpt lat="49.39568" lon="0.13959">
        <ele>106</ele>
        <time>2015-12-03T11:15:43+01:00</time>
      </trkpt>
      <trkpt lat="49.39539" lon="0.13953">
        <ele>106</ele>
        <time>2015-12-03T11:16:07+01:00</time>
      </trkpt>
      <trkpt lat="49.3952" lon="0.13949">
        <ele>106</ele>
        <time>2015-12-03T11:16:23+01:00</time>
      </trkpt>
      <trkpt lat="49.39492" lon="0.13939">
        <ele>107</ele>
        <time>2015-12-03T11:16:45+01:00</time>
      </trkpt>
      <trkpt lat="49.39455" lon="0.13929">
        <ele>109</ele>
        <time>2015-12-03T11:17:11+01:00</time>
      </trkpt>
      <trkpt lat="49.39435" lon="0.13918">
        <ele>110</ele>
        <time>2015-12-03T11:17:26+01:00</time>
      </trkpt>
      <trkpt lat="49.39411" lon="0.13916">
        <ele>111</ele>
        <time>2015-12-03T11:17:49+01:00</time>
      </trkpt>
      <trkpt lat="49.39385" lon="0.13914">
        <ele>113</ele>
        <time>2015-12-03T11:18:13+01:00</time>
      </trkpt>
      <trkpt lat="49.39351" lon="0.13912">
        <ele>114</ele>
        <time>2015-12-03T11:18:41+01:00</time>
      </trkpt>
      <trkpt lat="49.39314" lon="0.13908">
        <ele>115</ele>
        <time>2015-12-03T11:20:56+01:00</time>
      </trkpt>
      <trkpt lat="49.39346" lon="0.13952">
        <ele>114</ele>
        <time>2015-12-03T11:21:16+01:00</time>
      </trkpt>
      <trkpt lat="49.3937" lon="0.13992">
        <ele>112</ele>
        <time>2015-12-03T11:21:43+01:00</time>
      </trkpt>
      <trkpt lat="49.39381" lon="0.14016">
        <ele>111</ele>
        <time>2015-12-03T11:21:56+01:00</time>
      </trkpt>
      <trkpt lat="49.39397" lon="0.14052">
        <ele>111</ele>
        <time>2015-12-03T11:22:22+01:00</time>
      </trkpt>
      <trkpt lat="49.39422" lon="0.14134">
        <ele>111</ele>
        <time>2015-12-03T11:23:09+01:00</time>
      </trkpt>
      <trkpt lat="49.39437" lon="0.14171">
        <ele>111</ele>
        <time>2015-12-03T11:23:34+01:00</time>
      </trkpt>
      <trkpt lat="49.39448" lon="0.14211">
        <ele>112</ele>
        <time>2015-12-03T11:24:00+01:00</time>
      </trkpt>
      <trkpt lat="49.3946" lon="0.14249">
        <ele>112</ele>
        <time>2015-12-03T11:24:22+01:00</time>
      </trkpt>
      <trkpt lat="49.39473" lon="0.14273">
        <ele>111</ele>
        <time>2015-12-03T11:24:36+01:00</time>
      </trkpt>
      <trkpt lat="49.39501" lon="0.14312">
        <ele>110</ele>
        <time>2015-12-03T11:25:06+01:00</time>
      </trkpt>
      <trkpt lat="49.39511" lon="0.14338">
        <ele>109</ele>
        <time>2015-12-03T11:25:24+01:00</time>
      </trkpt>
      <trkpt lat="49.39533" lon="0.14369">
        <ele>108</ele>
        <time>2015-12-03T11:25:49+01:00</time>
      </trkpt>
      <trkpt lat="49.3955" lon="0.14382">
        <ele>109</ele>
        <time>2015-12-03T11:26:02+01:00</time>
      </trkpt>
      <trkpt lat="49.39568" lon="0.14416">
        <ele>108</ele>
        <time>2015-12-03T11:26:27+01:00</time>
      </trkpt>
      <trkpt lat="49.3962" lon="0.14477">
        <ele>104</ele>
        <time>2015-12-03T11:27:29+01:00</time>
      </trkpt>
      <trkpt lat="49.39634" lon="0.14497">
        <ele>102</ele>
        <time>2015-12-03T11:27:45+01:00</time>
      </trkpt>
      <trkpt lat="49.39655" lon="0.14546">
        <ele>95</ele>
        <time>2015-12-03T11:28:18+01:00</time>
      </trkpt>
      <trkpt lat="49.39678" lon="0.14571">
        <ele>91</ele>
        <time>2015-12-03T11:28:48+01:00</time>
      </trkpt>
      <trkpt lat="49.39696" lon="0.14582">
        <ele>89</ele>
        <time>2015-12-03T11:29:06+01:00</time>
      </trkpt>
      <trkpt lat="49.39716" lon="0.14613">
        <ele>83</ele>
        <time>2015-12-03T11:29:34+01:00</time>
      </trkpt>
      <trkpt lat="49.39733" lon="0.14628">
        <ele>81</ele>
        <time>2015-12-03T11:29:52+01:00</time>
      </trkpt>
      <trkpt lat="49.39763" lon="0.14661">
        <ele>75</ele>
        <time>2015-12-03T11:30:31+01:00</time>
      </trkpt>
      <trkpt lat="49.39776" lon="0.14682">
        <ele>72</ele>
        <time>2015-12-03T11:30:46+01:00</time>
      </trkpt>
      <trkpt lat="49.39804" lon="0.14722">
        <ele>66</ele>
        <time>2015-12-03T11:31:19+01:00</time>
      </trkpt>
      <trkpt lat="49.39835" lon="0.14759">
        <ele>61</ele>
        <time>2015-12-03T11:31:52+01:00</time>
      </trkpt>
      <trkpt lat="49.39886" lon="0.1482">
        <ele>54</ele>
        <time>2015-12-03T11:32:50+01:00</time>
      </trkpt>
      <trkpt lat="49.39908" lon="0.14848">
        <ele>51</ele>
        <time>2015-12-03T11:33:14+01:00</time>
      </trkpt>
      <trkpt lat="49.39924" lon="0.14864">
        <ele>50</ele>
        <time>2015-12-03T11:33:32+01:00</time>
      </trkpt>
      <trkpt lat="49.39964" lon="0.14962">
        <ele>46</ele>
        <time>2015-12-03T11:34:45+01:00</time>
      </trkpt>
      <trkpt lat="49.39988" lon="0.15005">
        <ele>42</ele>
        <time>2015-12-03T11:35:19+01:00</time>
      </trkpt>
      <trkpt lat="49.39999" lon="0.15035">
        <ele>40</ele>
        <time>2020-08-17T23:37:41+02:00</time>
      </trkpt>
      <trkpt lat="49.39991" lon="0.15048">
        <ele>40</ele>
        <time>2015-12-03T11:35:28+01:00</time>
      </trkpt>
      <trkpt lat="49.3998" lon="0.15049">
        <ele>41</ele>
        <time>2015-12-03T11:35:56+01:00</time>
      </trkpt>
      <trkpt lat="49.39965" lon="0.15059">
        <ele>41</ele>
        <time>2015-12-03T11:36:17+01:00</time>
      </trkpt>
      <trkpt lat="49.39929" lon="0.15078">
        <ele>42</ele>
        <time>2015-12-03T11:36:56+01:00</time>
      </trkpt>
      <trkpt lat="49.39884" lon="0.151">
        <ele>41</ele>
        <time>2015-12-03T11:37:40+01:00</time>
      </trkpt>
      <trkpt lat="49.39856" lon="0.15108">
        <ele>40</ele>
        <time>2015-12-03T11:38:05+01:00</time>
      </trkpt>
      <trkpt lat="49.3983" lon="0.15121">
        <ele>40</ele>
        <time>2015-12-03T11:38:30+01:00</time>
      </trkpt>
      <trkpt lat="49.39792" lon="0.1513">
        <ele>41</ele>
        <time>2015-12-03T11:39:04+01:00</time>
      </trkpt>
      <trkpt lat="49.39764" lon="0.15133">
        <ele>42</ele>
        <time>2015-12-03T11:39:28+01:00</time>
      </trkpt>
      <trkpt lat="49.39725" lon="0.1513">
        <ele>42</ele>
        <time>2015-12-03T11:39:59+01:00</time>
      </trkpt>
      <trkpt lat="49.39677" lon="0.15123">
        <ele>42</ele>
        <time>2015-12-03T11:40:26+01:00</time>
      </trkpt>
      <trkpt lat="49.39675" lon="0.1516">
        <ele>40</ele>
        <time>2015-12-03T11:41:02+01:00</time>
      </trkpt>
      <trkpt lat="49.39677" lon="0.15191">
        <ele>39</ele>
        <time>2015-12-03T11:41:23+01:00</time>
      </trkpt>
      <trkpt lat="49.39675" lon="0.15237">
        <ele>37</ele>
        <time>2015-12-03T11:41:47+01:00</time>
      </trkpt>
      <trkpt lat="49.39669" lon="0.15265">
        <ele>37</ele>
        <time>2015-12-03T11:42:03+01:00</time>
      </trkpt>
      <trkpt lat="49.39674" lon="0.15308">
        <ele>37</ele>
        <time>2015-12-03T11:42:27+01:00</time>
      </trkpt>
      <trkpt lat="49.39687" lon="0.15362">
        <ele>35</ele>
        <time>2015-12-03T11:42:59+01:00</time>
      </trkpt>
      <trkpt lat="49.39695" lon="0.15403">
        <ele>35</ele>
        <time>2015-12-03T11:43:29+01:00</time>
      </trkpt>
      <trkpt lat="49.39716" lon="0.1545">
        <ele>33</ele>
        <time>2015-12-03T11:44:05+01:00</time>
      </trkpt>
      <trkpt lat="49.39737" lon="0.15481">
        <ele>31</ele>
        <time>2015-12-03T11:44:33+01:00</time>
      </trkpt>
      <trkpt lat="49.39748" lon="0.15504">
        <ele>30</ele>
        <time>2015-12-03T11:44:50+01:00</time>
      </trkpt>
      <trkpt lat="49.39761" lon="0.15543">
        <ele>29</ele>
        <time>2015-12-03T11:45:19+01:00</time>
      </trkpt>
      <trkpt lat="49.39772" lon="0.15567">
        <ele>28</ele>
        <time>2015-12-03T11:45:35+01:00</time>
      </trkpt>
      <trkpt lat="49.3977" lon="0.15605">
        <ele>28</ele>
        <time>2015-12-03T11:46:09+01:00</time>
      </trkpt>
      <trkpt lat="49.3977" lon="0.15634">
        <ele>28</ele>
        <time>2015-12-03T11:46:29+01:00</time>
      </trkpt>
      <trkpt lat="49.39782" lon="0.15686">
        <ele>28</ele>
        <time>2015-12-03T11:47:22+01:00</time>
      </trkpt>
      <trkpt lat="49.3978" lon="0.15716">
        <ele>31</ele>
        <time>2015-12-03T11:47:42+01:00</time>
      </trkpt>
      <trkpt lat="49.39788" lon="0.15829">
        <ele>37</ele>
        <time>2015-12-03T11:49:03+01:00</time>
      </trkpt>
      <trkpt lat="49.39792" lon="0.15893">
        <ele>41</ele>
        <time>2015-12-03T11:49:27+01:00</time>
      </trkpt>
      <trkpt lat="49.39765" lon="0.15919">
        <ele>43</ele>
        <time>2015-12-03T11:49:53+01:00</time>
      </trkpt>
      <trkpt lat="49.39753" lon="0.15935">
        <ele>44</ele>
        <time>2015-12-03T11:50:27+01:00</time>
      </trkpt>
      <trkpt lat="49.39776" lon="0.15993">
        <ele>47</ele>
        <time>2015-12-03T11:51:06+01:00</time>
      </trkpt>
      <trkpt lat="49.39789" lon="0.16021">
        <ele>48</ele>
        <time>2015-12-03T11:53:39+01:00</time>
      </trkpt>
      <trkpt lat="49.39748" lon="0.16057">
        <ele>50</ele>
        <time>2015-12-03T11:54:15+01:00</time>
      </trkpt>
      <trkpt lat="49.39718" lon="0.16119">
        <ele>52</ele>
        <time>2015-12-03T11:54:52+01:00</time>
      </trkpt>
      <trkpt lat="49.39694" lon="0.16145">
        <ele>53</ele>
        <time>2015-12-03T11:55:16+01:00</time>
      </trkpt>
      <trkpt lat="49.39676" lon="0.16159">
        <ele>54</ele>
        <time>2015-12-03T11:55:31+01:00</time>
      </trkpt>
      <trkpt lat="49.39649" lon="0.16171">
        <ele>56</ele>
        <time>2015-12-03T11:55:55+01:00</time>
      </trkpt>
      <trkpt lat="49.39576" lon="0.16208">
        <ele>61</ele>
        <time>2015-12-03T11:57:01+01:00</time>
      </trkpt>
      <trkpt lat="49.39549" lon="0.1622">
        <ele>63</ele>
        <time>2015-12-03T11:57:32+01:00</time>
      </trkpt>
      <trkpt lat="49.39523" lon="0.16229">
        <ele>65</ele>
        <time>2015-12-03T11:57:58+01:00</time>
      </trkpt>
      <trkpt lat="49.395" lon="0.16242">
        <ele>67</ele>
        <time>2015-12-03T11:58:17+01:00</time>
      </trkpt>
      <trkpt lat="49.39529" lon="0.1629">
        <ele>65</ele>
        <time>2015-12-03T11:58:51+01:00</time>
      </trkpt>
      <trkpt lat="49.39541" lon="0.16338">
        <ele>63</ele>
        <time>2015-12-03T11:59:23+01:00</time>
      </trkpt>
      <trkpt lat="49.39557" lon="0.16391">
        <ele>60</ele>
        <time>2015-12-03T11:59:52+01:00</time>
      </trkpt>
      <trkpt lat="49.39579" lon="0.1647">
        <ele>56</ele>
        <time>2015-12-03T12:00:42+01:00</time>
      </trkpt>
      <trkpt lat="49.39599" lon="0.16521">
        <ele>54</ele>
        <time>2015-12-03T12:01:27+01:00</time>
      </trkpt>
      <trkpt lat="49.39628" lon="0.16558">
        <ele>54</ele>
        <time>2015-12-03T12:02:17+01:00</time>
      </trkpt>
      <trkpt lat="49.39647" lon="0.16586">
        <ele>55</ele>
        <time>2015-12-03T12:02:46+01:00</time>
      </trkpt>
      <trkpt lat="49.39664" lon="0.16622">
        <ele>56</ele>
        <time>2015-12-03T12:03:18+01:00</time>
      </trkpt>
      <trkpt lat="49.39677" lon="0.16656">
        <ele>58</ele>
        <time>2015-12-03T12:03:47+01:00</time>
      </trkpt>
      <trkpt lat="49.39696" lon="0.16653">
        <ele>58</ele>
        <time>2015-12-03T12:04:10+01:00</time>
      </trkpt>
      <trkpt lat="49.39733" lon="0.16641">
        <ele>59</ele>
        <time>2015-12-03T12:04:50+01:00</time>
      </trkpt>
      <trkpt lat="49.39772" lon="0.16637">
        <ele>59</ele>
        <time>2015-12-03T12:05:30+01:00</time>
      </trkpt>
      <trkpt lat="49.39809" lon="0.16621">
        <ele>59</ele>
        <time>2015-12-03T12:06:04+01:00</time>
      </trkpt>
      <trkpt lat="49.39827" lon="0.16619">
        <ele>58</ele>
        <time>2015-12-03T12:06:24+01:00</time>
      </trkpt>
      <trkpt lat="49.39854" lon="0.16634">
        <ele>60</ele>
        <time>2015-12-03T12:06:49+01:00</time>
      </trkpt>
      <trkpt lat="49.39882" lon="0.16626">
        <ele>61</ele>
        <time>2015-12-03T12:07:17+01:00</time>
      </trkpt>
      <trkpt lat="49.39931" lon="0.16619">
        <ele>61</ele>
        <time>2015-12-03T12:07:54+01:00</time>
      </trkpt>
      <trkpt lat="49.39965" lon="0.16598">
        <ele>58</ele>
        <time>2015-12-03T12:08:27+01:00</time>
      </trkpt>
      <trkpt lat="49.40003" lon="0.16587">
        <ele>57</ele>
        <time>2015-12-03T12:08:58+01:00</time>
      </trkpt>
      <trkpt lat="49.40031" lon="0.16586">
        <ele>57</ele>
        <time>2015-12-03T12:09:25+01:00</time>
      </trkpt>
      <trkpt lat="49.4005" lon="0.16584">
        <ele>56</ele>
        <time>2015-12-03T12:09:44+01:00</time>
      </trkpt>
      <trkpt lat="49.40084" lon="0.16585">
        <ele>56</ele>
        <time>2015-12-03T12:16:06+01:00</time>
      </trkpt>
      <trkpt lat="49.40107" lon="0.16593">
        <ele>55</ele>
        <time>2015-12-03T12:47:25+01:00</time>
      </trkpt>
      <trkpt lat="49.4007" lon="0.16647">
        <ele>58</ele>
        <time>2015-12-03T12:47:56+01:00</time>
      </trkpt>
      <trkpt lat="49.40041" lon="0.16683">
        <ele>60</ele>
        <time>2015-12-03T12:48:42+01:00</time>
      </trkpt>
      <trkpt lat="49.40039" lon="0.16724">
        <ele>60</ele>
        <time>2015-12-03T12:49:15+01:00</time>
      </trkpt>
      <trkpt lat="49.40051" lon="0.16748">
        <ele>59</ele>
        <time>2015-12-03T12:49:34+01:00</time>
      </trkpt>
      <trkpt lat="49.40042" lon="0.16784">
        <ele>59</ele>
        <time>2015-12-03T12:50:08+01:00</time>
      </trkpt>
      <trkpt lat="49.40031" lon="0.16824">
        <ele>60</ele>
        <time>2015-12-03T12:50:29+01:00</time>
      </trkpt>
      <trkpt lat="49.40018" lon="0.16881">
        <ele>58</ele>
        <time>2015-12-03T12:51:03+01:00</time>
      </trkpt>
      <trkpt lat="49.40009" lon="0.16907">
        <ele>58</ele>
        <time>2015-12-03T12:51:21+01:00</time>
      </trkpt>
      <trkpt lat="49.39992" lon="0.16941">
        <ele>58</ele>
        <time>2015-12-03T12:51:49+01:00</time>
      </trkpt>
      <trkpt lat="49.39974" lon="0.16993">
        <ele>57</ele>
        <time>2015-12-03T12:52:28+01:00</time>
      </trkpt>
      <trkpt lat="49.39957" lon="0.17029">
        <ele>55</ele>
        <time>2015-12-03T12:52:57+01:00</time>
      </trkpt>
      <trkpt lat="49.39935" lon="0.17061">
        <ele>55</ele>
        <time>2015-12-03T12:53:23+01:00</time>
      </trkpt>
      <trkpt lat="49.39911" lon="0.17106">
        <ele>54</ele>
        <time>2015-12-03T12:53:56+01:00</time>
      </trkpt>
      <trkpt lat="49.39884" lon="0.17149">
        <ele>54</ele>
        <time>2015-12-03T12:54:33+01:00</time>
      </trkpt>
      <trkpt lat="49.3986" lon="0.17194">
        <ele>53</ele>
        <time>2015-12-03T12:55:03+01:00</time>
      </trkpt>
      <trkpt lat="49.39852" lon="0.17205">
        <ele>53</ele>
        <time>2015-12-03T12:55:11+01:00</time>
      </trkpt>
      <trkpt lat="49.3983" lon="0.1723">
        <ele>52</ele>
        <time>2015-12-03T12:55:38+01:00</time>
      </trkpt>
      <trkpt lat="49.39806" lon="0.17252">
        <ele>53</ele>
        <time>2015-12-03T12:55:59+01:00</time>
      </trkpt>
      <trkpt lat="49.39793" lon="0.17289">
        <ele>52</ele>
        <time>2015-12-03T12:56:22+01:00</time>
      </trkpt>
      <trkpt lat="49.39795" lon="0.17318">
        <ele>51</ele>
        <time>2015-12-03T12:56:40+01:00</time>
      </trkpt>
      <trkpt lat="49.3979" lon="0.17361">
        <ele>50</ele>
        <time>2015-12-03T12:57:05+01:00</time>
      </trkpt>
      <trkpt lat="49.39771" lon="0.17395">
        <ele>50</ele>
        <time>2015-12-03T12:57:24+01:00</time>
      </trkpt>
      <trkpt lat="49.39742" lon="0.17432">
        <ele>49</ele>
        <time>2015-12-03T12:57:54+01:00</time>
      </trkpt>
      <trkpt lat="49.39711" lon="0.17469">
        <ele>48</ele>
        <time>2015-12-03T12:58:26+01:00</time>
      </trkpt>
      <trkpt lat="49.39685" lon="0.17494">
        <ele>48</ele>
        <time>2015-12-03T12:58:47+01:00</time>
      </trkpt>
      <trkpt lat="49.39654" lon="0.17526">
        <ele>48</ele>
        <time>2015-12-03T12:59:17+01:00</time>
      </trkpt>
      <trkpt lat="49.39623" lon="0.17562">
        <ele>49</ele>
        <time>2015-12-03T12:59:47+01:00</time>
      </trkpt>
      <trkpt lat="49.39594" lon="0.17599">
        <ele>50</ele>
        <time>2015-12-03T13:00:16+01:00</time>
      </trkpt>
      <trkpt lat="49.39536" lon="0.17677">
        <ele>50</ele>
        <time>2015-12-03T13:01:12+01:00</time>
      </trkpt>
      <trkpt lat="49.39516" lon="0.17708">
        <ele>50</ele>
        <time>2015-12-03T13:01:36+01:00</time>
      </trkpt>
      <trkpt lat="49.39504" lon="0.1773">
        <ele>50</ele>
        <time>2015-12-03T13:02:26+01:00</time>
      </trkpt>
      <trkpt lat="49.39535" lon="0.17735">
        <ele>49</ele>
        <time>2015-12-03T13:02:52+01:00</time>
      </trkpt>
      <trkpt lat="49.39573" lon="0.17733">
        <ele>48</ele>
        <time>2015-12-03T13:03:40+01:00</time>
      </trkpt>
      <trkpt lat="49.39593" lon="0.17731">
        <ele>47</ele>
        <time>2015-12-03T13:03:51+01:00</time>
      </trkpt>
      <trkpt lat="49.39628" lon="0.17708">
        <ele>46</ele>
        <time>2015-12-03T13:04:23+01:00</time>
      </trkpt>
      <trkpt lat="49.39652" lon="0.17683">
        <ele>46</ele>
        <time>2015-12-03T13:04:51+01:00</time>
      </trkpt>
      <trkpt lat="49.3968" lon="0.17676">
        <ele>45</ele>
        <time>2015-12-03T13:05:18+01:00</time>
      </trkpt>
      <trkpt lat="49.39699" lon="0.17679">
        <ele>43</ele>
        <time>2015-12-03T13:05:35+01:00</time>
      </trkpt>
      <trkpt lat="49.39737" lon="0.17681">
        <ele>41</ele>
        <time>2015-12-03T13:06:13+01:00</time>
      </trkpt>
      <trkpt lat="49.39756" lon="0.1768">
        <ele>40</ele>
        <time>2015-12-03T13:06:30+01:00</time>
      </trkpt>
      <trkpt lat="49.39783" lon="0.17666">
        <ele>39</ele>
        <time>2015-12-03T13:06:53+01:00</time>
      </trkpt>
      <trkpt lat="49.39818" lon="0.17644">
        <ele>37</ele>
        <time>2015-12-03T13:07:27+01:00</time>
      </trkpt>
      <trkpt lat="49.39826" lon="0.17636">
        <ele>37</ele>
        <time>2015-12-03T13:07:41+01:00</time>
      </trkpt>
      <trkpt lat="49.3986" lon="0.17607">
        <ele>36</ele>
        <time>2015-12-03T13:08:21+01:00</time>
      </trkpt>
      <trkpt lat="49.39876" lon="0.17593">
        <ele>35</ele>
        <time>2015-12-03T13:08:39+01:00</time>
      </trkpt>
      <trkpt lat="49.39924" lon="0.17546">
        <ele>34</ele>
        <time>2015-12-03T13:09:28+01:00</time>
      </trkpt>
      <trkpt lat="49.39961" lon="0.17522">
        <ele>33</ele>
        <time>2015-12-03T13:10:04+01:00</time>
      </trkpt>
      <trkpt lat="49.39998" lon="0.17501">
        <ele>31</ele>
        <time>2015-12-03T13:10:40+01:00</time>
      </trkpt>
      <trkpt lat="49.4003" lon="0.17472">
        <ele>30</ele>
        <time>2015-12-03T13:11:18+01:00</time>
      </trkpt>
      <trkpt lat="49.40056" lon="0.17456">
        <ele>29</ele>
        <time>2015-12-03T13:11:51+01:00</time>
      </trkpt>
      <trkpt lat="49.40076" lon="0.17458">
        <ele>28</ele>
        <time>2015-12-03T13:12:05+01:00</time>
      </trkpt>
      <trkpt lat="49.40114" lon="0.17456">
        <ele>26</ele>
        <time>2015-12-03T13:12:36+01:00</time>
      </trkpt>
      <trkpt lat="49.40133" lon="0.17458">
        <ele>26</ele>
        <time>2015-12-03T13:12:56+01:00</time>
      </trkpt>
      <trkpt lat="49.4016" lon="0.17446">
        <ele>25</ele>
        <time>2015-12-03T13:13:24+01:00</time>
      </trkpt>
      <trkpt lat="49.40197" lon="0.17422">
        <ele>24</ele>
        <time>2015-12-03T13:13:54+01:00</time>
      </trkpt>
      <trkpt lat="49.40221" lon="0.17401">
        <ele>24</ele>
        <time>2015-12-03T13:14:19+01:00</time>
      </trkpt>
      <trkpt lat="49.40236" lon="0.17383">
        <ele>24</ele>
        <time>2015-12-03T13:14:36+01:00</time>
      </trkpt>
      <trkpt lat="49.40262" lon="0.17361">
        <ele>23</ele>
        <time>2015-12-03T13:15:07+01:00</time>
      </trkpt>
      <trkpt lat="49.40288" lon="0.17342">
        <ele>22</ele>
        <time>2015-12-03T13:15:41+01:00</time>
      </trkpt>
      <trkpt lat="49.40306" lon="0.17332">
        <ele>22</ele>
        <time>2015-12-03T13:16:02+01:00</time>
      </trkpt>
      <trkpt lat="49.4033" lon="0.17309">
        <ele>23</ele>
        <time>2015-12-03T13:16:34+01:00</time>
      </trkpt>
      <trkpt lat="49.40362" lon="0.17261">
        <ele>23</ele>
        <time>2015-12-03T13:17:20+01:00</time>
      </trkpt>
      <trkpt lat="49.40381" lon="0.17291">
        <ele>20</ele>
        <time>2015-12-03T13:17:50+01:00</time>
      </trkpt>
      <trkpt lat="49.40393" lon="0.17313">
        <ele>17</ele>
        <time>2015-12-03T13:18:08+01:00</time>
      </trkpt>
      <trkpt lat="49.40418" lon="0.17334">
        <ele>13</ele>
        <time>2015-12-03T13:19:06+01:00</time>
      </trkpt>
      <trkpt lat="49.40435" lon="0.1732">
        <ele>13</ele>
        <time>2015-12-03T13:21:46+01:00</time>
      </trkpt>
      <trkpt lat="49.40463" lon="0.1731">
        <ele>13</ele>
        <time>2015-12-03T13:22:14+01:00</time>
      </trkpt>
      <trkpt lat="49.40482" lon="0.17316">
        <ele>12</ele>
        <time>2015-12-03T13:22:27+01:00</time>
      </trkpt>
      <trkpt lat="49.40512" lon="0.17314">
        <ele>11</ele>
        <time>2015-12-03T13:22:52+01:00</time>
      </trkpt>
      <trkpt lat="49.40531" lon="0.17315">
        <ele>11</ele>
        <time>2015-12-03T13:23:06+01:00</time>
      </trkpt>
      <trkpt lat="49.40559" lon="0.17304">
        <ele>10</ele>
        <time>2015-12-03T13:23:29+01:00</time>
      </trkpt>
      <trkpt lat="49.40591" lon="0.17277">
        <ele>9</ele>
        <time>2015-12-03T13:23:59+01:00</time>
      </trkpt>
      <trkpt lat="49.4061" lon="0.17266">
        <ele>9</ele>
        <time>2015-12-03T13:24:21+01:00</time>
      </trkpt>
      <trkpt lat="49.40628" lon="0.17317">
        <ele>10</ele>
        <time>2015-12-03T13:24:56+01:00</time>
      </trkpt>
      <trkpt lat="49.4064" lon="0.17356">
        <ele>11</ele>
        <time>2015-12-03T13:25:23+01:00</time>
      </trkpt>
      <trkpt lat="49.40659" lon="0.17407">
        <ele>13</ele>
        <time>2015-12-03T13:25:59+01:00</time>
      </trkpt>
      <trkpt lat="49.40676" lon="0.17458">
        <ele>14</ele>
        <time>2015-12-03T13:26:35+01:00</time>
      </trkpt>
      <trkpt lat="49.40686" lon="0.17483">
        <ele>15</ele>
        <time>2015-12-03T13:26:56+01:00</time>
      </trkpt>
      <trkpt lat="49.40702" lon="0.17519">
        <ele>16</ele>
        <time>2015-12-03T13:27:25+01:00</time>
      </trkpt>
      <trkpt lat="49.40724" lon="0.17566">
        <ele>18</ele>
        <time>2015-12-03T13:27:58+01:00</time>
      </trkpt>
      <trkpt lat="49.40731" lon="0.17593">
        <ele>19</ele>
        <time>2015-12-03T13:28:14+01:00</time>
      </trkpt>
      <trkpt lat="49.40729" lon="0.17634">
        <ele>22</ele>
        <time>2015-12-03T13:28:41+01:00</time>
      </trkpt>
      <trkpt lat="49.4071" lon="0.17676">
        <ele>26</ele>
        <time>2015-12-03T13:29:07+01:00</time>
      </trkpt>
      <trkpt lat="49.407" lon="0.17738">
        <ele>31</ele>
        <time>2015-12-03T13:30:53+01:00</time>
      </trkpt>
    </trkseg>
  </trk>
</gpx>